PWSweather.com
Personal Weather Stations
Station Observations
ISARDEGN48
BittiIT 08021

BittiIT 08021

Lat: 40.4805, Lon: 9.3887

Elevation: 1804

Station Type: La Crosse WS2355

http://meteobitti.altervista.org

High Low Average
Temperature 65.8°F18.8°C 54.1°F12.3°C 59.0°F15.0°C
Dew Point 57.8°F14.3°C 50.3°F10.2°C 54.5°F12.5°C
Winds 18.8 mph 30.3 kmh Calm Calm 6.0 mph SSE9.7 kmh SSE
Wind Gusts 23.0 mph37.0 kmh -- 12.0 mph19.3 kmh
Humidity 89% 72% 85%
Pressure 29.79 in1008.8 mb 29.55 in1000.7 mb -
Precipitation 0.59 in15.0 mm - -
Hour Temp Dew Point Humidity Winds Wind Gusts Pressure Precip Precip Rate Daily Precip Total
12:00 AM 54.9°F12.7°C 51.0°F10.6°C 87% Calm Calm 2.9 mph4.7 kmh 29.79 in1008.8 mb 0.00 in0.0 mm 0.00 in0.0 mm 0.00 in0.0 mm
12:05 AM 54.7°F12.6°C 50.8°F10.4°C 87% Calm Calm 2.9 mph4.7 kmh 29.79 in1008.8 mb 0.00 in0.0 mm 0.00 in0.0 mm 0.00 in0.0 mm
12:10 AM 54.7°F12.6°C 50.8°F10.4°C 87% Calm Calm 2.0 mph3.2 kmh 29.79 in1008.8 mb 0.00 in0.0 mm 0.00 in0.0 mm 0.00 in0.0 mm
12:15 AM 54.7°F12.6°C 50.8°F10.4°C 87% 5.4 mph SW8.7 kmh SW 8.5 mph13.7 kmh 29.79 in1008.8 mb 0.00 in0.0 mm 0.00 in0.0 mm 0.00 in0.0 mm
12:20 AM 55.2°F12.9°C 51.7°F10.9°C 88% 2.9 mph SSW4.7 kmh SSW 8.5 mph13.7 kmh 29.78 in1008.5 mb 0.00 in0.0 mm 0.00 in0.0 mm 0.00 in0.0 mm
12:25 AM 55.6°F13.1°C 52.1°F11.2°C 88% 1.3 mph SSW2.1 kmh SSW 7.8 mph12.6 kmh 29.78 in1008.5 mb 0.00 in0.0 mm 0.00 in0.0 mm 0.00 in0.0 mm
12:30 AM 55.6°F13.1°C 51.7°F10.9°C 87% 4.3 mph SSW6.9 kmh SSW 8.3 mph13.4 kmh 29.78 in1008.5 mb 0.00 in0.0 mm 0.00 in0.0 mm 0.00 in0.0 mm
12:35 AM 55.8°F13.2°C 51.9°F11.1°C 87% 3.4 mph SSW5.5 kmh SSW 9.2 mph14.8 kmh 29.78 in1008.5 mb 0.00 in0.0 mm 0.00 in0.0 mm 0.00 in0.0 mm
12:40 AM 55.9°F13.3°C 52.1°F11.2°C 87% 4.7 mph SSW7.6 kmh SSW 9.2 mph14.8 kmh 29.78 in1008.5 mb 0.00 in0.0 mm 0.00 in0.0 mm 0.00 in0.0 mm
12:45 AM 55.8°F13.2°C 51.6°F10.9°C 86% 6.0 mph SSW9.7 kmh SSW 7.6 mph12.2 kmh 29.78 in1008.5 mb 0.00 in0.0 mm 0.00 in0.0 mm 0.00 in0.0 mm
12:50 AM 55.9°F13.3°C 51.8°F11.0°C 86% 1.6 mph SW2.6 kmh SW 6.9 mph11.1 kmh 29.78 in1008.5 mb 0.00 in0.0 mm 0.00 in0.0 mm 0.00 in0.0 mm
12:55 AM 55.6°F13.1°C 51.4°F10.8°C 86% Calm Calm 4.7 mph7.6 kmh 29.78 in1008.5 mb 0.00 in0.0 mm 0.00 in0.0 mm 0.00 in0.0 mm
01:00 AM 55.2°F12.9°C 51.0°F10.6°C 86% Calm Calm 1.3 mph2.1 kmh 29.78 in1008.5 mb 0.00 in0.0 mm 0.00 in0.0 mm 0.00 in0.0 mm
01:05 AM 55.0°F12.8°C 50.9°F10.5°C 86% Calm Calm -- 29.78 in1008.5 mb 0.00 in0.0 mm 0.00 in0.0 mm 0.00 in0.0 mm
01:10 AM 54.9°F12.7°C 50.7°F10.4°C 86% Calm Calm 1.3 mph2.1 kmh 29.77 in1008.1 mb 0.00 in0.0 mm 0.00 in0.0 mm 0.00 in0.0 mm
01:15 AM 54.5°F12.5°C 50.7°F10.4°C 87% 1.1 mph SW1.8 kmh SW 2.0 mph3.2 kmh 29.77 in1008.1 mb 0.00 in0.0 mm 0.00 in0.0 mm 0.00 in0.0 mm
01:20 AM 54.3°F12.4°C 50.5°F10.3°C 87% 1.6 mph WSW2.6 kmh WSW 2.0 mph3.2 kmh 29.78 in1008.5 mb 0.00 in0.0 mm 0.00 in0.0 mm 0.00 in0.0 mm
01:25 AM 54.1°F12.3°C 50.3°F10.2°C 87% Calm Calm 2.0 mph3.2 kmh 29.77 in1008.1 mb 0.00 in0.0 mm 0.00 in0.0 mm 0.00 in0.0 mm
01:30 AM 54.1°F12.3°C 50.6°F10.3°C 88% Calm Calm 4.3 mph6.9 kmh 29.77 in1008.1 mb 0.00 in0.0 mm 0.00 in0.0 mm 0.00 in0.0 mm
01:35 AM 54.3°F12.4°C 50.8°F10.4°C 88% 3.8 mph SW6.1 kmh SW 9.2 mph14.8 kmh 29.77 in1008.1 mb 0.00 in0.0 mm 0.00 in0.0 mm 0.00 in0.0 mm
01:40 AM 54.9°F12.7°C 51.3°F10.7°C 88% 3.6 mph SSW5.8 kmh SSW 9.2 mph14.8 kmh 29.77 in1008.1 mb 0.00 in0.0 mm 0.00 in0.0 mm 0.00 in0.0 mm
01:45 AM 55.0°F12.8°C 51.5°F10.8°C 88% 2.0 mph SSW3.2 kmh SSW 8.1 mph13.0 kmh 29.77 in1008.1 mb 0.00 in0.0 mm 0.00 in0.0 mm 0.00 in0.0 mm
01:50 AM 55.2°F12.9°C 51.7°F10.9°C 88% Calm Calm 8.1 mph13.0 kmh 29.77 in1008.1 mb 0.00 in0.0 mm 0.00 in0.0 mm 0.00 in0.0 mm
01:55 AM 54.9°F12.7°C 51.0°F10.6°C 87% Calm Calm 5.8 mph9.3 kmh 29.77 in1008.1 mb 0.00 in0.0 mm 0.00 in0.0 mm 0.00 in0.0 mm
02:00 AM 54.5°F12.5°C 50.7°F10.4°C 87% Calm Calm 2.7 mph4.3 kmh 29.77 in1008.1 mb 0.00 in0.0 mm 0.00 in0.0 mm 0.00 in0.0 mm
02:05 AM 54.3°F12.4°C 50.5°F10.3°C 87% Calm Calm 1.1 mph1.8 kmh 29.77 in1008.1 mb 0.00 in0.0 mm 0.00 in0.0 mm 0.00 in0.0 mm
02:10 AM 54.1°F12.3°C 50.6°F10.3°C 88% Calm Calm 2.2 mph3.5 kmh 29.76 in1007.8 mb 0.00 in0.0 mm 0.00 in0.0 mm 0.00 in0.0 mm
02:15 AM 54.3°F12.4°C 50.8°F10.4°C 88% Calm Calm 2.2 mph3.5 kmh 29.76 in1007.8 mb 0.00 in0.0 mm 0.00 in0.0 mm 0.00 in0.0 mm
02:20 AM 54.1°F12.3°C 50.8°F10.4°C 88% Calm Calm 1.3 mph2.1 kmh 29.76 in1007.8 mb 0.00 in0.0 mm 0.00 in0.0 mm 0.00 in0.0 mm
02:25 AM 54.1°F12.3°C 50.6°F10.3°C 88% 1.1 mph ENE1.8 kmh ENE 2.0 mph3.2 kmh 29.76 in1007.8 mb 0.00 in0.0 mm 0.00 in0.0 mm 0.00 in0.0 mm
02:30 AM 54.5°F12.5°C 51.0°F10.6°C 88% Calm Calm 2.2 mph3.5 kmh 29.76 in1007.8 mb 0.00 in0.0 mm 0.00 in0.0 mm 0.00 in0.0 mm
02:35 AM 54.7°F12.6°C 51.2°F10.7°C 88% Calm Calm 2.2 mph3.5 kmh 29.76 in1007.8 mb 0.00 in0.0 mm 0.00 in0.0 mm 0.00 in0.0 mm
02:40 AM 54.7°F12.6°C 51.5°F10.8°C 89% 1.8 mph E2.9 kmh E 2.0 mph3.2 kmh 29.76 in1007.8 mb 0.00 in0.0 mm 0.00 in0.0 mm 0.00 in0.0 mm
02:45 AM 54.7°F12.6°C 51.5°F10.8°C 89% Calm Calm 2.2 mph3.5 kmh 29.76 in1007.8 mb 0.00 in0.0 mm 0.00 in0.0 mm 0.00 in0.0 mm
02:50 AM 54.7°F12.6°C 51.5°F10.8°C 89% 2.0 mph E3.2 kmh E 4.3 mph6.9 kmh 29.76 in1007.8 mb 0.00 in0.0 mm 0.00 in0.0 mm 0.00 in0.0 mm
02:55 AM 55.2°F12.9°C 52.0°F11.1°C 89% 2.5 mph E4.0 kmh E 4.3 mph6.9 kmh 29.76 in1007.8 mb 0.00 in0.0 mm 0.00 in0.0 mm 0.00 in0.0 mm
03:00 AM 55.2°F12.9°C 52.0°F11.1°C 89% 3.4 mph E5.5 kmh E 5.8 mph9.3 kmh 29.75 in1007.5 mb 0.00 in0.0 mm 0.00 in0.0 mm 0.00 in0.0 mm
03:05 AM 55.4°F13.0°C 52.2°F11.2°C 89% 1.6 mph ESE2.6 kmh ESE 4.5 mph7.2 kmh 29.75 in1007.5 mb 0.00 in0.0 mm 0.00 in0.0 mm 0.00 in0.0 mm
03:10 AM 55.6°F13.1°C 52.4°F11.3°C 89% Calm Calm 4.5 mph7.2 kmh 29.75 in1007.5 mb 0.00 in0.0 mm 0.00 in0.0 mm 0.00 in0.0 mm
03:15 AM 55.6°F13.1°C 52.4°F11.3°C 89% Calm Calm 3.4 mph5.5 kmh 29.75 in1007.5 mb 0.00 in0.0 mm 0.00 in0.0 mm 0.00 in0.0 mm
03:20 AM 55.8°F13.2°C 52.6°F11.4°C 89% 4.0 mph S6.4 kmh S 6.5 mph10.5 kmh 29.75 in1007.5 mb 0.00 in0.0 mm 0.00 in0.0 mm 0.00 in0.0 mm
03:25 AM 55.8°F13.2°C 52.2°F11.2°C 88% 11.2 mph SSW18.0 kmh SSW 11.2 mph18.0 kmh 29.74 in1007.1 mb 0.00 in0.0 mm 0.00 in0.0 mm 0.00 in0.0 mm
03:30 AM 55.9°F13.3°C 52.4°F11.3°C 88% 13.4 mph SSW21.6 kmh SSW 13.4 mph21.6 kmh 29.75 in1007.5 mb 0.00 in0.0 mm 0.00 in0.0 mm 0.00 in0.0 mm
03:35 AM 55.9°F13.3°C 52.4°F11.3°C 88% 12.8 mph SSW20.6 kmh SSW 14.3 mph23.0 kmh 29.74 in1007.1 mb 0.00 in0.0 mm 0.00 in0.0 mm 0.00 in0.0 mm
03:40 AM 55.9°F13.3°C 52.4°F11.3°C 88% 12.3 mph S19.8 kmh S 15.0 mph24.1 kmh 29.74 in1007.1 mb 0.00 in0.0 mm 0.00 in0.0 mm 0.00 in0.0 mm
03:45 AM 55.9°F13.3°C 52.1°F11.2°C 87% 9.8 mph SSW15.8 kmh SSW 19.7 mph31.7 kmh 29.74 in1007.1 mb 0.00 in0.0 mm 0.00 in0.0 mm 0.00 in0.0 mm
03:50 AM 55.9°F13.3°C 52.1°F11.2°C 87% 8.1 mph SSW13.0 kmh SSW 19.7 mph31.7 kmh 29.74 in1007.1 mb 0.00 in0.0 mm 0.00 in0.0 mm 0.00 in0.0 mm
03:55 AM 55.9°F13.3°C 52.1°F11.2°C 87% Calm Calm 18.6 mph29.9 kmh 29.74 in1007.1 mb 0.00 in0.0 mm 0.00 in0.0 mm 0.00 in0.0 mm
04:00 AM 55.9°F13.3°C 52.1°F11.2°C 87% 5.4 mph SSW8.7 kmh SSW 18.6 mph29.9 kmh 29.74 in1007.1 mb 0.00 in0.0 mm 0.00 in0.0 mm 0.00 in0.0 mm
04:05 AM 55.9°F13.3°C 52.1°F11.2°C 87% 5.4 mph SSW8.7 kmh SSW 14.5 mph23.3 kmh 29.74 in1007.1 mb 0.00 in0.0 mm 0.00 in0.0 mm 0.00 in0.0 mm
04:10 AM 55.9°F13.3°C 52.1°F11.2°C 87% 5.8 mph SSW9.3 kmh SSW 14.5 mph23.3 kmh 29.74 in1007.1 mb 0.00 in0.0 mm 0.00 in0.0 mm 0.00 in0.0 mm
04:15 AM 55.9°F13.3°C 52.1°F11.2°C 87% 7.2 mph SSW11.6 kmh SSW 15.7 mph25.3 kmh 29.74 in1007.1 mb 0.00 in0.0 mm 0.00 in0.0 mm 0.00 in0.0 mm
04:20 AM 55.8°F13.2°C 51.9°F11.1°C 87% 6.9 mph SSW11.1 kmh SSW 15.7 mph25.3 kmh 29.73 in1006.8 mb 0.00 in0.0 mm 0.00 in0.0 mm 0.00 in0.0 mm
04:25 AM 55.8°F13.2°C 51.9°F11.1°C 87% 3.4 mph SSW5.5 kmh SSW 11.9 mph19.2 kmh 29.74 in1007.1 mb 0.00 in0.0 mm 0.00 in0.0 mm 0.00 in0.0 mm
04:30 AM 55.6°F13.1°C 51.7°F10.9°C 87% 6.9 mph SSW11.1 kmh SSW 11.9 mph19.2 kmh 29.74 in1007.1 mb 0.00 in0.0 mm 0.00 in0.0 mm 0.00 in0.0 mm
04:35 AM 55.6°F13.1°C 51.7°F10.9°C 87% 5.8 mph SSW9.3 kmh SSW 10.3 mph16.6 kmh 29.74 in1007.1 mb 0.00 in0.0 mm 0.00 in0.0 mm 0.00 in0.0 mm
04:40 AM 55.6°F13.1°C 51.7°F10.9°C 87% 4.5 mph S7.2 kmh S 6.9 mph11.1 kmh 29.74 in1007.1 mb 0.00 in0.0 mm 0.00 in0.0 mm 0.00 in0.0 mm
04:45 AM 55.6°F13.1°C 51.7°F10.9°C 87% Calm Calm 5.8 mph9.3 kmh 29.73 in1006.8 mb 0.00 in0.0 mm 0.00 in0.0 mm 0.00 in0.0 mm
04:50 AM 55.4°F13.0°C 51.9°F11.1°C 88% 1.6 mph SSW2.6 kmh SSW 4.0 mph6.4 kmh 29.73 in1006.8 mb 0.00 in0.0 mm 0.00 in0.0 mm 0.00 in0.0 mm
04:55 AM 55.4°F13.0°C 51.5°F10.8°C 87% 2.9 mph S4.7 kmh S 3.8 mph6.1 kmh 29.73 in1006.8 mb 0.00 in0.0 mm 0.00 in0.0 mm 0.00 in0.0 mm
05:00 AM 55.2°F12.9°C 51.7°F10.9°C 88% Calm Calm 3.1 mph5.0 kmh 29.73 in1006.8 mb 0.00 in0.0 mm 0.00 in0.0 mm 0.00 in0.0 mm
05:05 AM 55.2°F12.9°C 51.7°F10.9°C 88% 1.3 mph ENE2.1 kmh ENE 2.2 mph3.5 kmh 29.73 in1006.8 mb 0.00 in0.0 mm 0.00 in0.0 mm 0.00 in0.0 mm
05:10 AM 55.2°F12.9°C 51.7°F10.9°C 88% Calm Calm 2.5 mph4.0 kmh 29.73 in1006.8 mb 0.00 in0.0 mm 0.00 in0.0 mm 0.00 in0.0 mm
05:15 AM 55.4°F13.0°C 51.9°F11.1°C 88% Calm Calm 2.5 mph4.0 kmh 29.73 in1006.8 mb 0.00 in0.0 mm 0.00 in0.0 mm 0.00 in0.0 mm
05:20 AM 55.4°F13.0°C 51.9°F11.1°C 88% Calm Calm 2.2 mph3.5 kmh 29.73 in1006.8 mb 0.00 in0.0 mm 0.00 in0.0 mm 0.00 in0.0 mm
05:25 AM 55.2°F12.9°C 51.7°F10.9°C 88% 0.9 mph NNE1.4 kmh NNE 3.4 mph5.5 kmh 29.73 in1006.8 mb 0.00 in0.0 mm 0.00 in0.0 mm 0.00 in0.0 mm
05:30 AM 55.2°F12.9°C 51.7°F10.9°C 88% 2.2 mph NE3.5 kmh NE 3.4 mph5.5 kmh 29.73 in1006.8 mb 0.00 in0.0 mm 0.00 in0.0 mm 0.00 in0.0 mm
05:35 AM 55.4°F13.0°C 51.9°F11.1°C 88% Calm Calm 2.2 mph3.5 kmh 29.73 in1006.8 mb 0.00 in0.0 mm 0.00 in0.0 mm 0.00 in0.0 mm
05:40 AM 55.4°F13.0°C 51.9°F11.1°C 88% 3.6 mph S5.8 kmh S 4.0 mph6.4 kmh 29.73 in1006.8 mb 0.00 in0.0 mm 0.00 in0.0 mm 0.00 in0.0 mm
05:45 AM 55.6°F13.1°C 52.1°F11.2°C 88% 3.6 mph SSW5.8 kmh SSW 5.4 mph8.7 kmh 29.73 in1006.8 mb 0.00 in0.0 mm 0.00 in0.0 mm 0.00 in0.0 mm
05:50 AM 55.6°F13.1°C 52.1°F11.2°C 88% 0.9 mph SSW1.4 kmh SSW 5.4 mph8.7 kmh 29.73 in1006.8 mb 0.00 in0.0 mm 0.00 in0.0 mm 0.00 in0.0 mm
05:55 AM 55.4°F13.0°C 51.9°F11.1°C 88% 2.2 mph SSW3.5 kmh SSW 4.9 mph7.9 kmh 29.73 in1006.8 mb 0.00 in0.0 mm 0.00 in0.0 mm 0.00 in0.0 mm
06:00 AM 55.6°F13.1°C 52.1°F11.2°C 88% 0.9 mph S1.4 kmh S 3.8 mph6.1 kmh 29.73 in1006.8 mb 0.00 in0.0 mm 0.00 in0.0 mm 0.00 in0.0 mm
06:05 AM 55.4°F13.0°C 51.9°F11.1°C 88% 2.5 mph S4.0 kmh S 5.1 mph8.2 kmh 29.72 in1006.4 mb 0.00 in0.0 mm 0.00 in0.0 mm 0.00 in0.0 mm
06:10 AM 55.6°F13.1°C 52.1°F11.2°C 88% 2.0 mph SSW3.2 kmh SSW 7.8 mph12.6 kmh 29.73 in1006.8 mb 0.00 in0.0 mm 0.00 in0.0 mm 0.00 in0.0 mm
06:15 AM 55.6°F13.1°C 52.1°F11.2°C 88% Calm Calm 7.8 mph12.6 kmh 29.73 in1006.8 mb 0.00 in0.0 mm 0.00 in0.0 mm 0.00 in0.0 mm
06:20 AM 55.6°F13.1°C 52.1°F11.2°C 88% Calm Calm 2.0 mph3.2 kmh 29.73 in1006.8 mb 0.00 in0.0 mm 0.00 in0.0 mm 0.00 in0.0 mm
06:25 AM 55.6°F13.1°C 52.1°F11.2°C 88% 4.7 mph SSW7.6 kmh SSW 7.8 mph12.6 kmh 29.73 in1006.8 mb 0.00 in0.0 mm 0.00 in0.0 mm 0.00 in0.0 mm
06:30 AM 55.6°F13.1°C 52.1°F11.2°C 88% 1.3 mph SW2.1 kmh SW 7.8 mph12.6 kmh 29.73 in1006.8 mb 0.00 in0.0 mm 0.00 in0.0 mm 0.00 in0.0 mm
06:35 AM 55.6°F13.1°C 52.1°F11.2°C 88% 4.3 mph WSW6.9 kmh WSW 6.9 mph11.1 kmh 29.73 in1006.8 mb 0.00 in0.0 mm 0.00 in0.0 mm 0.00 in0.0 mm
06:40 AM 55.6°F13.1°C 52.4°F11.3°C 89% 2.7 mph W4.3 kmh W 5.8 mph9.3 kmh 29.73 in1006.8 mb 0.00 in0.0 mm 0.00 in0.0 mm 0.00 in0.0 mm
06:45 AM 55.8°F13.2°C 52.6°F11.4°C 89% 1.3 mph W2.1 kmh W 5.6 mph9.0 kmh 29.72 in1006.4 mb 0.00 in0.0 mm 0.00 in0.0 mm 0.00 in0.0 mm
06:50 AM 55.8°F13.2°C 52.6°F11.4°C 89% Calm Calm 7.6 mph12.2 kmh 29.72 in1006.4 mb 0.00 in0.0 mm 0.00 in0.0 mm 0.00 in0.0 mm
06:55 AM 55.9°F13.3°C 52.7°F11.5°C 89% 1.6 mph WSW2.6 kmh WSW 7.6 mph12.2 kmh 29.72 in1006.4 mb 0.00 in0.0 mm 0.00 in0.0 mm 0.00 in0.0 mm
07:00 AM 55.9°F13.3°C 52.4°F11.3°C 88% Calm Calm 2.9 mph4.7 kmh 29.72 in1006.4 mb 0.00 in0.0 mm 0.00 in0.0 mm 0.00 in0.0 mm
07:05 AM 55.9°F13.3°C 52.4°F11.3°C 88% Calm Calm 2.5 mph4.0 kmh 29.72 in1006.4 mb 0.00 in0.0 mm 0.00 in0.0 mm 0.00 in0.0 mm
07:10 AM 55.9°F13.3°C 52.4°F11.3°C 88% Calm Calm 1.8 mph2.9 kmh 29.72 in1006.4 mb 0.00 in0.0 mm 0.00 in0.0 mm 0.00 in0.0 mm
07:15 AM 55.9°F13.3°C 52.4°F11.3°C 88% Calm Calm 5.6 mph9.0 kmh 29.72 in1006.4 mb 0.00 in0.0 mm 0.00 in0.0 mm 0.00 in0.0 mm
07:20 AM 55.9°F13.3°C 52.4°F11.3°C 88% 4.7 mph SSW7.6 kmh SSW 6.5 mph10.5 kmh 29.72 in1006.4 mb 0.00 in0.0 mm 0.00 in0.0 mm 0.00 in0.0 mm
07:25 AM 56.1°F13.4°C 52.6°F11.4°C 88% 4.0 mph SSW6.4 kmh SSW 9.8 mph15.8 kmh 29.72 in1006.4 mb 0.00 in0.0 mm 0.00 in0.0 mm 0.00 in0.0 mm
07:30 AM 56.3°F13.5°C 52.8°F11.6°C 88% 7.8 mph SW12.6 kmh SW 9.8 mph15.8 kmh 29.72 in1006.4 mb 0.00 in0.0 mm 0.00 in0.0 mm 0.00 in0.0 mm
07:35 AM 56.5°F13.6°C 53.0°F11.7°C 88% 3.8 mph SW6.1 kmh SW 7.8 mph12.6 kmh 29.72 in1006.4 mb 0.00 in0.0 mm 0.00 in0.0 mm 0.00 in0.0 mm
07:40 AM 56.5°F13.6°C 53.0°F11.7°C 88% 1.1 mph SW1.8 kmh SW 4.9 mph7.9 kmh 29.72 in1006.4 mb 0.00 in0.0 mm 0.00 in0.0 mm 0.00 in0.0 mm
07:45 AM 56.5°F13.6°C 53.0°F11.7°C 88% Calm Calm 3.8 mph6.1 kmh 29.72 in1006.4 mb 0.00 in0.0 mm 0.00 in0.0 mm 0.00 in0.0 mm
07:50 AM 56.5°F13.6°C 53.0°F11.7°C 88% 1.3 mph NNE2.1 kmh NNE 2.5 mph4.0 kmh 29.72 in1006.4 mb 0.00 in0.0 mm 0.00 in0.0 mm 0.00 in0.0 mm
07:55 AM 56.5°F13.6°C 53.0°F11.7°C 88% 1.3 mph ENE2.1 kmh ENE 2.5 mph4.0 kmh 29.73 in1006.8 mb 0.00 in0.0 mm 0.00 in0.0 mm 0.00 in0.0 mm
08:00 AM 56.7°F13.7°C 53.1°F11.7°C 88% Calm Calm 2.7 mph4.3 kmh 29.73 in1006.8 mb 0.00 in0.0 mm 0.00 in0.0 mm 0.00 in0.0 mm
08:05 AM 56.8°F13.8°C 53.3°F11.8°C 88% 2.0 mph NE3.2 kmh NE 4.0 mph6.4 kmh 29.73 in1006.8 mb 0.00 in0.0 mm 0.00 in0.0 mm 0.00 in0.0 mm
08:10 AM 56.8°F13.8°C 53.3°F11.8°C 88% 1.6 mph NE2.6 kmh NE 4.0 mph6.4 kmh 29.73 in1006.8 mb 0.00 in0.0 mm 0.00 in0.0 mm 0.00 in0.0 mm
08:15 AM 56.8°F13.8°C 53.3°F11.8°C 88% Calm Calm 1.6 mph2.6 kmh 29.73 in1006.8 mb 0.00 in0.0 mm 0.00 in0.0 mm 0.00 in0.0 mm
08:20 AM 57.0°F13.9°C 53.5°F11.9°C 88% Calm Calm 1.6 mph2.6 kmh 29.73 in1006.8 mb 0.00 in0.0 mm 0.00 in0.0 mm 0.00 in0.0 mm
08:25 AM 57.0°F13.9°C 53.5°F11.9°C 88% 1.3 mph NE2.1 kmh NE 2.2 mph3.5 kmh 29.73 in1006.8 mb 0.00 in0.0 mm 0.00 in0.0 mm 0.00 in0.0 mm
08:30 AM 57.0°F13.9°C 53.5°F11.9°C 88% 1.8 mph NE2.9 kmh NE 2.2 mph3.5 kmh 29.73 in1006.8 mb 0.00 in0.0 mm 0.00 in0.0 mm 0.00 in0.0 mm
08:35 AM 57.4°F14.1°C 53.9°F12.2°C 88% Calm Calm 2.2 mph3.5 kmh 29.72 in1006.4 mb 0.00 in0.0 mm 0.00 in0.0 mm 0.00 in0.0 mm
08:40 AM 57.6°F14.2°C 54.0°F12.2°C 88% 1.6 mph ESE2.6 kmh ESE 2.2 mph3.5 kmh 29.72 in1006.4 mb 0.00 in0.0 mm 0.00 in0.0 mm 0.00 in0.0 mm
08:45 AM 57.7°F14.3°C 54.2°F12.3°C 88% 4.0 mph SSW6.4 kmh SSW 11.0 mph17.7 kmh 29.72 in1006.4 mb 0.00 in0.0 mm 0.00 in0.0 mm 0.00 in0.0 mm
08:50 AM 57.9°F14.4°C 54.4°F12.4°C 88% 11.9 mph SSW19.2 kmh SSW 12.3 mph19.8 kmh 29.71 in1006.1 mb 0.00 in0.0 mm 0.00 in0.0 mm 0.00 in0.0 mm
08:55 AM 58.1°F14.5°C 54.2°F12.3°C 87% 4.0 mph SSW6.4 kmh SSW 12.8 mph20.6 kmh 29.72 in1006.4 mb 0.00 in0.0 mm 0.00 in0.0 mm 0.00 in0.0 mm
09:00 AM 58.3°F14.6°C 54.4°F12.4°C 87% 7.4 mph SSW11.9 kmh SSW 13.6 mph21.9 kmh 29.72 in1006.4 mb 0.00 in0.0 mm 0.00 in0.0 mm 0.00 in0.0 mm
09:05 AM 58.6°F14.8°C 54.8°F12.7°C 87% 3.8 mph SW6.1 kmh SW 13.6 mph21.9 kmh 29.71 in1006.1 mb 0.00 in0.0 mm 0.00 in0.0 mm 0.00 in0.0 mm
09:10 AM 58.8°F14.9°C 55.0°F12.8°C 87% 5.1 mph SSW8.2 kmh SSW 11.0 mph17.7 kmh 29.71 in1006.1 mb 0.00 in0.0 mm 0.00 in0.0 mm 0.00 in0.0 mm
09:15 AM 58.8°F14.9°C 55.0°F12.8°C 87% 5.8 mph SSW9.3 kmh SSW 9.2 mph14.8 kmh 29.71 in1006.1 mb 0.00 in0.0 mm 0.00 in0.0 mm 0.00 in0.0 mm
09:20 AM 59.2°F15.1°C 55.0°F12.8°C 86% 1.8 mph SSW2.9 kmh SSW 9.2 mph14.8 kmh 29.71 in1006.1 mb 0.00 in0.0 mm 0.00 in0.0 mm 0.00 in0.0 mm
09:25 AM 59.4°F15.2°C 55.2°F12.9°C 86% 8.3 mph SSW13.4 kmh SSW 9.8 mph15.8 kmh 29.71 in1006.1 mb 0.00 in0.0 mm 0.00 in0.0 mm 0.00 in0.0 mm
09:30 AM 59.5°F15.3°C 55.4°F13.0°C 86% 4.0 mph SSW6.4 kmh SSW 9.8 mph15.8 kmh 29.70 in1005.8 mb 0.00 in0.0 mm 0.00 in0.0 mm 0.00 in0.0 mm
09:35 AM 59.9°F15.5°C 55.7°F13.2°C 86% 2.5 mph SSW4.0 kmh SSW 11.9 mph19.2 kmh 29.71 in1006.1 mb 0.00 in0.0 mm 0.00 in0.0 mm 0.00 in0.0 mm
09:40 AM 60.1°F15.6°C 55.9°F13.3°C 86% 6.0 mph SSW9.7 kmh SSW 11.9 mph19.2 kmh 29.70 in1005.8 mb 0.00 in0.0 mm 0.00 in0.0 mm 0.00 in0.0 mm
09:45 AM 60.4°F15.8°C 55.9°F13.3°C 85% 10.7 mph SSW17.2 kmh SSW 15.4 mph24.8 kmh 29.70 in1005.8 mb 0.00 in0.0 mm 0.00 in0.0 mm 0.00 in0.0 mm
09:50 AM 60.4°F15.8°C 55.9°F13.3°C 85% 2.5 mph SSW4.0 kmh SSW 15.4 mph24.8 kmh 29.70 in1005.8 mb 0.00 in0.0 mm 0.00 in0.0 mm 0.00 in0.0 mm
09:55 AM 60.6°F15.9°C 55.8°F13.2°C 84% 1.8 mph SSW2.9 kmh SSW 11.0 mph17.7 kmh 29.71 in1006.1 mb 0.00 in0.0 mm 0.00 in0.0 mm 0.00 in0.0 mm
10:00 AM 60.6°F15.9°C 55.8°F13.2°C 84% 6.0 mph SSW9.7 kmh SSW 11.0 mph17.7 kmh 29.71 in1006.1 mb 0.00 in0.0 mm 0.00 in0.0 mm 0.00 in0.0 mm
10:05 AM 60.4°F15.8°C 55.6°F13.1°C 84% 2.5 mph S4.0 kmh S 10.7 mph17.2 kmh 29.71 in1006.1 mb 0.00 in0.0 mm 0.00 in0.0 mm 0.00 in0.0 mm
10:10 AM 60.4°F15.8°C 55.6°F13.1°C 84% 9.2 mph SSW14.8 kmh SSW 9.2 mph14.8 kmh 29.71 in1006.1 mb 0.00 in0.0 mm 0.00 in0.0 mm 0.00 in0.0 mm
10:15 AM 60.1°F15.6°C 55.3°F12.9°C 84% 1.6 mph SSW2.6 kmh SSW 12.8 mph20.6 kmh 29.71 in1006.1 mb 0.00 in0.0 mm 0.00 in0.0 mm 0.00 in0.0 mm
10:20 AM 60.1°F15.6°C 55.6°F13.1°C 85% 4.7 mph SSW7.6 kmh SSW 12.8 mph20.6 kmh 29.71 in1006.1 mb 0.00 in0.0 mm 0.00 in0.0 mm 0.00 in0.0 mm
10:25 AM 59.9°F15.5°C 55.4°F13.0°C 85% 8.3 mph SSW13.4 kmh SSW 14.5 mph23.3 kmh 29.71 in1006.1 mb 0.00 in0.0 mm 0.00 in0.0 mm 0.00 in0.0 mm
10:30 AM 59.9°F15.5°C 55.4°F13.0°C 85% 1.6 mph SSW2.6 kmh SSW 14.5 mph23.3 kmh 29.71 in1006.1 mb 0.00 in0.0 mm 0.00 in0.0 mm 0.00 in0.0 mm
10:35 AM 59.9°F15.5°C 55.4°F13.0°C 85% Calm Calm 10.7 mph17.2 kmh 29.71 in1006.1 mb 0.00 in0.0 mm 0.00 in0.0 mm 0.00 in0.0 mm
10:40 AM 59.9°F15.5°C 55.4°F13.0°C 85% Calm Calm 4.7 mph7.6 kmh 29.70 in1005.8 mb 0.00 in0.0 mm 0.00 in0.0 mm 0.00 in0.0 mm
10:45 AM 60.1°F15.6°C 55.6°F13.1°C 85% Calm Calm 3.8 mph6.1 kmh 29.70 in1005.8 mb 0.00 in0.0 mm 0.00 in0.0 mm 0.00 in0.0 mm
10:50 AM 60.1°F15.6°C 55.6°F13.1°C 85% 1.3 mph E2.1 kmh E 3.8 mph6.1 kmh 29.70 in1005.8 mb 0.00 in0.0 mm 0.00 in0.0 mm 0.00 in0.0 mm
10:55 AM 60.3°F15.7°C 55.8°F13.2°C 85% 13.6 mph S21.9 kmh S 13.6 mph21.9 kmh 29.70 in1005.8 mb 0.00 in0.0 mm 0.00 in0.0 mm 0.00 in0.0 mm
11:00 AM 60.6°F15.9°C 55.8°F13.2°C 84% 5.4 mph SSW8.7 kmh SSW 13.6 mph21.9 kmh 29.70 in1005.8 mb 0.00 in0.0 mm 0.00 in0.0 mm 0.00 in0.0 mm
11:05 AM 61.0°F16.1°C 55.8°F13.2°C 83% 7.8 mph SSW12.6 kmh SSW 15.7 mph25.3 kmh 29.69 in1005.4 mb 0.00 in0.0 mm 0.00 in0.0 mm 0.00 in0.0 mm
11:10 AM 61.5°F16.4°C 56.3°F13.5°C 83% 1.6 mph SSW2.6 kmh SSW 15.7 mph25.3 kmh 29.69 in1005.4 mb 0.00 in0.0 mm 0.00 in0.0 mm 0.00 in0.0 mm
11:15 AM 61.9°F16.6°C 56.3°F13.5°C 82% 7.2 mph SSW11.6 kmh SSW 13.2 mph21.2 kmh 29.68 in1005.1 mb 0.00 in0.0 mm 0.00 in0.0 mm 0.00 in0.0 mm
11:20 AM 62.2°F16.8°C 56.3°F13.5°C 81% 11.2 mph SSW18.0 kmh SSW 16.6 mph26.7 kmh 29.68 in1005.1 mb 0.00 in0.0 mm 0.00 in0.0 mm 0.00 in0.0 mm
11:25 AM 62.4°F16.9°C 56.1°F13.4°C 80% 10.5 mph SSW16.9 kmh SSW 22.4 mph36.0 kmh 29.68 in1005.1 mb 0.00 in0.0 mm 0.00 in0.0 mm 0.00 in0.0 mm
11:30 AM 63.0°F17.2°C 56.3°F13.5°C 79% 10.7 mph SSW17.2 kmh SSW 22.4 mph36.0 kmh 29.68 in1005.1 mb 0.00 in0.0 mm 0.00 in0.0 mm 0.00 in0.0 mm
11:35 AM 63.5°F17.5°C 56.5°F13.6°C 78% 7.2 mph SSW11.6 kmh SSW 19.7 mph31.7 kmh 29.67 in1004.7 mb 0.00 in0.0 mm 0.00 in0.0 mm 0.00 in0.0 mm
11:40 AM 63.7°F17.6°C 56.7°F13.7°C 78% 13.4 mph SW21.6 kmh SW 23.0 mph37.0 kmh 29.67 in1004.7 mb 0.00 in0.0 mm 0.00 in0.0 mm 0.00 in0.0 mm
11:45 AM 63.7°F17.6°C 56.3°F13.5°C 77% 15.4 mph SSW24.8 kmh SSW 23.0 mph37.0 kmh 29.67 in1004.7 mb 0.00 in0.0 mm 0.00 in0.0 mm 0.00 in0.0 mm
11:50 AM 63.7°F17.6°C 56.7°F13.7°C 78% 6.5 mph SSW10.5 kmh SSW 22.4 mph36.0 kmh 29.67 in1004.7 mb 0.00 in0.0 mm 0.00 in0.0 mm 0.00 in0.0 mm
11:55 AM 63.9°F17.7°C 56.8°F13.8°C 78% 5.1 mph SSW8.2 kmh SSW 15.4 mph24.8 kmh 29.67 in1004.7 mb 0.00 in0.0 mm 0.00 in0.0 mm 0.00 in0.0 mm
12:00 PM 64.0°F17.8°C 56.7°F13.7°C 77% 13.2 mph SSW21.2 kmh SSW 15.0 mph24.1 kmh 29.67 in1004.7 mb 0.00 in0.0 mm 0.00 in0.0 mm 0.00 in0.0 mm
12:05 PM 64.0°F17.8°C 56.3°F13.5°C 76% 8.3 mph SSW13.4 kmh SSW 19.7 mph31.7 kmh 29.66 in1004.4 mb 0.00 in0.0 mm 0.00 in0.0 mm 0.00 in0.0 mm
12:10 PM 64.0°F17.8°C 56.3°F13.5°C 76% 8.1 mph SSW13.0 kmh SSW 19.7 mph31.7 kmh 29.66 in1004.4 mb 0.00 in0.0 mm 0.00 in0.0 mm 0.00 in0.0 mm
12:15 PM 64.2°F17.9°C 56.1°F13.4°C 75% 13.6 mph SSW21.9 kmh SSW 18.6 mph29.9 kmh 29.66 in1004.4 mb 0.00 in0.0 mm 0.00 in0.0 mm 0.00 in0.0 mm
12:20 PM 64.2°F17.9°C 55.8°F13.2°C 74% 15.9 mph SSW25.6 kmh SSW 18.6 mph29.9 kmh 29.66 in1004.4 mb 0.00 in0.0 mm 0.00 in0.0 mm 0.00 in0.0 mm
12:25 PM 64.2°F17.9°C 56.1°F13.4°C 75% 6.3 mph SSW10.1 kmh SSW 17.7 mph28.5 kmh 29.66 in1004.4 mb 0.00 in0.0 mm 0.00 in0.0 mm 0.00 in0.0 mm
12:30 PM 64.2°F17.9°C 56.1°F13.4°C 75% 9.8 mph S15.8 kmh S 15.9 mph25.6 kmh 29.65 in1004.1 mb 0.00 in0.0 mm 0.00 in0.0 mm 0.00 in0.0 mm
12:35 PM 64.2°F17.9°C 56.1°F13.4°C 75% 4.0 mph SSW6.4 kmh SSW 14.1 mph22.7 kmh 29.65 in1004.1 mb 0.00 in0.0 mm 0.00 in0.0 mm 0.00 in0.0 mm
12:40 PM 64.2°F17.9°C 56.1°F13.4°C 75% 11.0 mph SSW17.7 kmh SSW 18.3 mph29.5 kmh 29.65 in1004.1 mb 0.00 in0.0 mm 0.00 in0.0 mm 0.00 in0.0 mm
12:45 PM 64.2°F17.9°C 56.1°F13.4°C 75% 4.5 mph SSW7.2 kmh SSW 18.3 mph29.5 kmh 29.65 in1004.1 mb 0.00 in0.0 mm 0.00 in0.0 mm 0.00 in0.0 mm
12:50 PM 64.2°F17.9°C 56.1°F13.4°C 75% 8.9 mph SSW14.3 kmh SSW 15.9 mph25.6 kmh 29.64 in1003.7 mb 0.00 in0.0 mm 0.00 in0.0 mm 0.00 in0.0 mm
12:55 PM 64.2°F17.9°C 56.1°F13.4°C 75% 11.9 mph SSW19.2 kmh SSW 17.2 mph27.7 kmh 29.64 in1003.7 mb 0.00 in0.0 mm 0.00 in0.0 mm 0.00 in0.0 mm
01:00 PM 64.2°F17.9°C 56.1°F13.4°C 75% 11.9 mph SSW19.2 kmh SSW 17.2 mph27.7 kmh 29.64 in1003.7 mb 0.00 in0.0 mm 0.00 in0.0 mm 0.00 in0.0 mm
01:05 PM 64.4°F18.0°C 56.3°F13.5°C 75% 10.1 mph SSW16.3 kmh SSW 17.0 mph27.4 kmh 29.63 in1003.4 mb 0.00 in0.0 mm 0.00 in0.0 mm 0.00 in0.0 mm
01:10 PM 64.8°F18.2°C 56.6°F13.7°C 75% 11.9 mph SSW19.2 kmh SSW 17.9 mph28.8 kmh 29.63 in1003.4 mb 0.00 in0.0 mm 0.00 in0.0 mm 0.00 in0.0 mm
01:15 PM 65.1°F18.4°C 56.6°F13.7°C 74% 4.7 mph SW7.6 kmh SW 19.0 mph30.6 kmh 29.63 in1003.4 mb 0.00 in0.0 mm 0.00 in0.0 mm 0.00 in0.0 mm
01:20 PM 65.8°F18.8°C 56.9°F13.8°C 73% 11.6 mph SSW18.7 kmh SSW 19.0 mph30.6 kmh 29.63 in1003.4 mb 0.00 in0.0 mm 0.00 in0.0 mm 0.00 in0.0 mm
01:25 PM 65.8°F18.8°C 56.5°F13.6°C 72% 9.8 mph SSW15.8 kmh SSW 17.7 mph28.5 kmh 29.63 in1003.4 mb 0.00 in0.0 mm 0.00 in0.0 mm 0.00 in0.0 mm
01:30 PM 65.8°F18.8°C 56.5°F13.6°C 72% 3.8 mph SSW6.1 kmh SSW 17.7 mph28.5 kmh 29.63 in1003.4 mb 0.00 in0.0 mm 0.00 in0.0 mm 0.00 in0.0 mm
01:35 PM 65.8°F18.8°C 56.9°F13.8°C 73% 3.4 mph SSW5.5 kmh SSW 18.3 mph29.5 kmh 29.63 in1003.4 mb 0.00 in0.0 mm 0.00 in0.0 mm 0.00 in0.0 mm
01:40 PM 65.7°F18.7°C 56.4°F13.6°C 72% 7.2 mph SSW11.6 kmh SSW 19.0 mph30.6 kmh 29.63 in1003.4 mb 0.00 in0.0 mm 0.00 in0.0 mm 0.00 in0.0 mm
01:45 PM 65.5°F18.6°C 56.6°F13.7°C 73% 7.2 mph SSW11.6 kmh SSW 19.0 mph30.6 kmh 29.62 in1003.0 mb 0.00 in0.0 mm 0.00 in0.0 mm 0.00 in0.0 mm
01:50 PM 65.5°F18.6°C 56.2°F13.4°C 72% 6.5 mph SSW10.5 kmh SSW 18.3 mph29.5 kmh 29.63 in1003.4 mb 0.00 in0.0 mm 0.00 in0.0 mm 0.00 in0.0 mm
01:55 PM 65.7°F18.7°C 56.4°F13.6°C 72% 11.2 mph SSW18.0 kmh SSW 18.8 mph30.3 kmh 29.63 in1003.4 mb 0.00 in0.0 mm 0.00 in0.0 mm 0.00 in0.0 mm
02:00 PM 65.7°F18.7°C 56.8°F13.8°C 73% 4.9 mph SW7.9 kmh SW 18.8 mph30.3 kmh 29.63 in1003.4 mb 0.00 in0.0 mm 0.00 in0.0 mm 0.00 in0.0 mm
02:05 PM 65.5°F18.6°C 56.2°F13.4°C 72% 5.4 mph SW8.7 kmh SW 14.1 mph22.7 kmh 29.62 in1003.0 mb 0.00 in0.0 mm 0.00 in0.0 mm 0.00 in0.0 mm
02:10 PM 65.3°F18.5°C 56.0°F13.3°C 72% 2.0 mph SW3.2 kmh SW 14.1 mph22.7 kmh 29.62 in1003.0 mb 0.00 in0.0 mm 0.00 in0.0 mm 0.00 in0.0 mm
02:15 PM 65.3°F18.5°C 56.4°F13.6°C 73% 7.8 mph SW12.6 kmh SW 12.8 mph20.6 kmh 29.62 in1003.0 mb 0.00 in0.0 mm 0.00 in0.0 mm 0.00 in0.0 mm
02:20 PM 65.1°F18.4°C 56.2°F13.4°C 73% 2.0 mph SSW3.2 kmh SSW 12.8 mph20.6 kmh 29.62 in1003.0 mb 0.00 in0.0 mm 0.00 in0.0 mm 0.00 in0.0 mm
02:25 PM 65.1°F18.4°C 56.2°F13.4°C 73% 3.6 mph SW5.8 kmh SW 9.2 mph14.8 kmh 29.62 in1003.0 mb 0.00 in0.0 mm 0.00 in0.0 mm 0.00 in0.0 mm
02:30 PM 65.5°F18.6°C 56.6°F13.7°C 73% Calm Calm 5.6 mph9.0 kmh 29.62 in1003.0 mb 0.00 in0.0 mm 0.00 in0.0 mm 0.00 in0.0 mm
02:35 PM 65.5°F18.6°C 56.6°F13.7°C 73% 2.2 mph S3.5 kmh S 5.6 mph9.0 kmh 29.62 in1003.0 mb 0.00 in0.0 mm 0.00 in0.0 mm 0.00 in0.0 mm
02:40 PM 65.5°F18.6°C 56.9°F13.8°C 74% Calm Calm 5.6 mph9.0 kmh 29.62 in1003.0 mb 0.00 in0.0 mm 0.00 in0.0 mm 0.00 in0.0 mm
02:45 PM 65.5°F18.6°C 56.9°F13.8°C 73% Calm Calm 4.0 mph6.4 kmh 29.62 in1003.0 mb 0.00 in0.0 mm 0.00 in0.0 mm 0.00 in0.0 mm
02:50 PM 65.5°F18.6°C 56.9°F13.8°C 74% 0.9 mph NE1.4 kmh NE 3.1 mph5.0 kmh 29.62 in1003.0 mb 0.00 in0.0 mm 0.00 in0.0 mm 0.00 in0.0 mm
02:55 PM 65.5°F18.6°C 56.9°F13.8°C 74% 1.6 mph S2.6 kmh S 7.6 mph12.2 kmh 29.62 in1003.0 mb 0.00 in0.0 mm 0.00 in0.0 mm 0.00 in0.0 mm
03:00 PM 65.3°F18.5°C 56.8°F13.8°C 74% 5.6 mph SSW9.0 kmh SSW 10.3 mph16.6 kmh 29.62 in1003.0 mb 0.00 in0.0 mm 0.00 in0.0 mm 0.00 in0.0 mm
03:05 PM 65.1°F18.4°C 57.3°F14.1°C 76% Calm Calm 10.3 mph16.6 kmh 29.62 in1003.0 mb 0.00 in0.0 mm 0.00 in0.0 mm 0.00 in0.0 mm
03:10 PM 64.6°F18.1°C 57.5°F14.2°C 78% Calm Calm 5.1 mph8.2 kmh 29.63 in1003.4 mb 0.00 in0.0 mm 0.00 in0.0 mm 0.00 in0.0 mm
03:15 PM 64.0°F17.8°C 57.7°F14.3°C 80% 6.9 mph NE11.1 kmh NE 12.8 mph20.6 kmh 29.63 in1003.4 mb 0.04 in1.0 mm 0.48 in12.2 mm 0.04 in1.0 mm
03:20 PM 62.2°F16.8°C 56.0°F13.3°C 80% 3.1 mph NNE5.0 kmh NNE 13.6 mph21.9 kmh 29.63 in1003.4 mb 0.06 in1.5 mm 0.24 in6.1 mm 0.06 in1.5 mm
03:25 PM 61.0°F16.1°C 55.2°F12.9°C 81% 3.8 mph NNE6.1 kmh NNE 13.6 mph21.9 kmh 29.63 in1003.4 mb 0.06 in1.5 mm 0.00 in0.0 mm 0.06 in1.5 mm
03:30 PM 60.4°F15.8°C 55.0°F12.8°C 82% 1.6 mph ENE2.6 kmh ENE 9.4 mph15.1 kmh 29.63 in1003.4 mb 0.08 in2.0 mm 0.24 in6.1 mm 0.08 in2.0 mm
03:35 PM 60.1°F15.6°C 55.3°F12.9°C 84% 3.6 mph SSE5.8 kmh SSE 7.6 mph12.2 kmh 29.63 in1003.4 mb 0.14 in3.6 mm 0.72 in18.3 mm 0.14 in3.6 mm
03:40 PM 60.1°F15.6°C 55.9°F13.3°C 86% 9.8 mph SSW15.8 kmh SSW 13.2 mph21.2 kmh 29.62 in1003.0 mb 0.16 in4.1 mm 0.24 in6.1 mm 0.16 in4.1 mm
03:45 PM 60.4°F15.8°C 56.6°F13.7°C 87% 10.7 mph SSW17.2 kmh SSW 16.1 mph25.9 kmh 29.62 in1003.0 mb 0.19 in4.8 mm 0.36 in9.1 mm 0.18 in4.6 mm
03:50 PM 60.1°F15.6°C 55.9°F13.3°C 86% 13.4 mph S21.6 kmh S 16.1 mph25.9 kmh 29.62 in1003.0 mb 0.19 in4.8 mm 0.00 in0.0 mm 0.18 in4.6 mm
03:55 PM 60.3°F15.7°C 56.1°F13.4°C 86% 15.7 mph SSW25.3 kmh SSW 15.9 mph25.6 kmh 29.62 in1003.0 mb 0.19 in4.8 mm 0.00 in0.0 mm 0.18 in4.6 mm
04:00 PM 60.1°F15.6°C 55.9°F13.3°C 86% 6.0 mph SSW9.7 kmh SSW 15.9 mph25.6 kmh 29.62 in1003.0 mb 0.20 in5.1 mm 0.01 in0.3 mm 0.20 in5.1 mm
04:05 PM 59.9°F15.5°C 55.7°F13.2°C 86% 3.8 mph S6.1 kmh S 15.9 mph25.6 kmh 29.62 in1003.0 mb 0.20 in5.1 mm 0.00 in0.0 mm 0.20 in5.1 mm
04:10 PM 59.9°F15.5°C 55.7°F13.2°C 86% 1.3 mph S2.1 kmh S 11.2 mph18.0 kmh 29.62 in1003.0 mb 0.22 in5.6 mm 0.24 in6.1 mm 0.22 in5.6 mm
04:15 PM 59.7°F15.4°C 55.5°F13.1°C 86% 2.9 mph S4.7 kmh S 3.6 mph5.8 kmh 29.61 in1002.7 mb 0.19 in4.8 mm 0.00 in0.0 mm 0.22 in5.6 mm
04:20 PM 59.9°F15.5°C 56.0°F13.3°C 87% 2.5 mph SSW4.0 kmh SSW 3.6 mph5.8 kmh 29.60 in1002.4 mb 0.16 in4.1 mm 0.00 in0.0 mm 0.22 in5.6 mm
04:25 PM 59.7°F15.4°C 55.9°F13.3°C 87% 4.3 mph SW6.9 kmh SW 6.0 mph9.7 kmh 29.61 in1002.7 mb 0.16 in4.1 mm 0.00 in0.0 mm 0.22 in5.6 mm
04:30 PM 59.5°F15.3°C 55.7°F13.2°C 87% 5.4 mph SW8.7 kmh SW 16.6 mph26.7 kmh 29.62 in1003.0 mb 0.19 in4.8 mm 0.36 in9.1 mm 0.26 in6.6 mm
04:35 PM 58.5°F14.7°C 54.6°F12.6°C 87% 1.1 mph N1.8 kmh N 16.6 mph26.7 kmh 29.62 in1003.0 mb 0.26 in6.6 mm 0.84 in21.3 mm 0.43 in10.9 mm
04:40 PM 57.9°F14.4°C 54.4°F12.4°C 88% 9.4 mph N15.1 kmh N 16.3 mph26.2 kmh 29.62 in1003.0 mb 0.31 in7.9 mm 0.60 in15.2 mm 0.47 in11.9 mm
04:45 PM 57.2°F14.0°C 53.3°F11.8°C 87% 11.0 mph SSW17.7 kmh SSW 16.6 mph26.7 kmh 29.62 in1003.0 mb 0.31 in7.9 mm 0.00 in0.0 mm 0.49 in12.4 mm
04:50 PM 57.0°F13.9°C 53.5°F11.9°C 88% 6.9 mph SSW11.1 kmh SSW 16.6 mph26.7 kmh 29.61 in1002.7 mb 0.35 in8.9 mm 0.48 in12.2 mm 0.53 in13.5 mm
04:55 PM 57.0°F13.9°C 53.8°F12.1°C 89% 11.0 mph SSW17.7 kmh SSW 15.0 mph24.1 kmh 29.60 in1002.4 mb 0.37 in9.4 mm 0.24 in6.1 mm 0.55 in14.0 mm
05:00 PM 57.0°F13.9°C 53.8°F12.1°C 89% 10.3 mph SW16.6 kmh SW 17.2 mph27.7 kmh 29.60 in1002.4 mb 0.37 in9.4 mm 0.00 in0.0 mm 0.57 in14.5 mm
05:05 PM 57.0°F13.9°C 53.8°F12.1°C 89% 15.2 mph SW24.5 kmh SW 17.9 mph28.8 kmh 29.61 in1002.7 mb 0.39 in9.9 mm 0.24 in6.1 mm 0.59 in15.0 mm
05:10 PM 57.4°F14.1°C 54.2°F12.3°C 89% 14.3 mph SSW23.0 kmh SSW 17.9 mph28.8 kmh 29.60 in1002.4 mb 0.37 in9.4 mm 0.00 in0.0 mm 0.59 in15.0 mm
05:15 PM 57.9°F14.4°C 54.4°F12.4°C 88% 14.5 mph SSW23.3 kmh SSW 17.2 mph27.7 kmh 29.60 in1002.4 mb 0.37 in9.4 mm 0.00 in0.0 mm 0.59 in15.0 mm
05:20 PM 58.1°F14.5°C 54.6°F12.6°C 88% 13.2 mph SSW21.2 kmh SSW 17.2 mph27.7 kmh 29.60 in1002.4 mb 0.37 in9.4 mm 0.00 in0.0 mm 0.59 in15.0 mm
05:25 PM 58.1°F14.5°C 54.6°F12.6°C 88% 8.5 mph SSW13.7 kmh SSW 17.0 mph27.4 kmh 29.60 in1002.4 mb 0.37 in9.4 mm 0.00 in0.0 mm 0.59 in15.0 mm
05:30 PM 58.5°F14.7°C 54.9°F12.7°C 88% 10.5 mph SSW16.9 kmh SSW 17.9 mph28.8 kmh 29.60 in1002.4 mb 0.26 in6.6 mm 0.00 in0.0 mm 0.59 in15.0 mm
05:35 PM 59.0°F15.0°C 55.1°F12.8°C 87% 2.9 mph SSW4.7 kmh SSW 17.9 mph28.8 kmh 29.60 in1002.4 mb 0.16 in4.1 mm 0.00 in0.0 mm 0.59 in15.0 mm
05:40 PM 59.4°F15.2°C 55.2°F12.9°C 86% 14.1 mph SSW22.7 kmh SSW 14.5 mph23.3 kmh 29.60 in1002.4 mb 0.12 in3.0 mm 0.00 in0.0 mm 0.59 in15.0 mm
05:45 PM 59.5°F15.3°C 54.7°F12.6°C 84% 3.8 mph SSW6.1 kmh SSW 14.5 mph23.3 kmh 29.60 in1002.4 mb 0.10 in2.5 mm 0.00 in0.0 mm 0.59 in15.0 mm
05:50 PM 59.7°F15.4°C 54.9°F12.7°C 84% 2.5 mph SSW4.0 kmh SSW 14.5 mph23.3 kmh 29.60 in1002.4 mb 0.06 in1.5 mm 0.00 in0.0 mm 0.59 in15.0 mm
05:55 PM 59.7°F15.4°C 54.6°F12.6°C 83% 10.1 mph SSW16.3 kmh SSW 10.5 mph16.9 kmh 29.60 in1002.4 mb 0.04 in1.0 mm 0.00 in0.0 mm 0.59 in15.0 mm
06:00 PM 59.9°F15.5°C 54.8°F12.7°C 83% 3.8 mph SSW6.1 kmh SSW 10.5 mph16.9 kmh 29.61 in1002.7 mb 0.02 in0.5 mm 0.00 in0.0 mm 0.59 in15.0 mm
06:05 PM 59.7°F15.4°C 54.9°F12.7°C 84% 7.2 mph SW11.6 kmh SW 10.1 mph16.3 kmh 29.61 in1002.7 mb 0.00 in0.0 mm 0.00 in0.0 mm 0.59 in15.0 mm
06:10 PM 59.7°F15.4°C 54.9°F12.7°C 84% 9.4 mph SSW15.1 kmh SSW 15.7 mph25.3 kmh 29.61 in1002.7 mb 0.00 in0.0 mm 0.00 in0.0 mm 0.59 in15.0 mm
06:15 PM 59.5°F15.3°C 54.7°F12.6°C 84% 13.2 mph SSW21.2 kmh SSW 15.7 mph25.3 kmh 29.61 in1002.7 mb 0.00 in0.0 mm 0.00 in0.0 mm 0.59 in15.0 mm
06:20 PM 59.7°F15.4°C 54.9°F12.7°C 84% 5.8 mph S9.3 kmh S 15.7 mph25.3 kmh 29.60 in1002.4 mb 0.00 in0.0 mm 0.00 in0.0 mm 0.59 in15.0 mm
06:25 PM 59.7°F15.4°C 54.9°F12.7°C 84% 4.7 mph SSW7.6 kmh SSW 14.3 mph23.0 kmh 29.61 in1002.7 mb 0.00 in0.0 mm 0.00 in0.0 mm 0.59 in15.0 mm
06:30 PM 59.5°F15.3°C 55.0°F12.8°C 85% 1.6 mph SW2.6 kmh SW 11.6 mph18.7 kmh 29.61 in1002.7 mb 0.00 in0.0 mm 0.00 in0.0 mm 0.59 in15.0 mm
06:35 PM 59.2°F15.1°C 55.0°F12.8°C 86% 9.4 mph SW15.1 kmh SW 9.4 mph15.1 kmh 29.60 in1002.4 mb 0.00 in0.0 mm 0.00 in0.0 mm 0.59 in15.0 mm
06:40 PM 59.0°F15.0°C 54.8°F12.7°C 86% 15.7 mph SW25.3 kmh SW 15.7 mph25.3 kmh 29.60 in1002.4 mb 0.00 in0.0 mm 0.00 in0.0 mm 0.59 in15.0 mm
06:45 PM 58.8°F14.9°C 55.0°F12.8°C 87% 9.6 mph SW15.4 kmh SW 15.7 mph25.3 kmh 29.60 in1002.4 mb 0.00 in0.0 mm 0.00 in0.0 mm 0.59 in15.0 mm
06:50 PM 58.8°F14.9°C 55.0°F12.8°C 87% 4.9 mph SSW7.9 kmh SSW 14.3 mph23.0 kmh 29.60 in1002.4 mb 0.00 in0.0 mm 0.00 in0.0 mm 0.59 in15.0 mm
06:55 PM 58.8°F14.9°C 55.0°F12.8°C 86% 9.8 mph SSW15.8 kmh SSW 13.9 mph22.4 kmh 29.60 in1002.4 mb 0.00 in0.0 mm 0.00 in0.0 mm 0.59 in15.0 mm
07:00 PM 58.6°F14.8°C 54.5°F12.5°C 86% 11.9 mph SSW19.2 kmh SSW 13.0 mph20.9 kmh 29.60 in1002.4 mb 0.00 in0.0 mm 0.00 in0.0 mm 0.59 in15.0 mm
07:05 PM 58.6°F14.8°C 54.5°F12.5°C 86% 9.6 mph SSW15.4 kmh SSW 15.0 mph24.1 kmh 29.60 in1002.4 mb 0.00 in0.0 mm 0.00 in0.0 mm 0.59 in15.0 mm
07:10 PM 58.6°F14.8°C 54.5°F12.5°C 86% 9.2 mph SSW14.8 kmh SSW 15.7 mph25.3 kmh 29.60 in1002.4 mb 0.00 in0.0 mm 0.00 in0.0 mm 0.59 in15.0 mm
07:15 PM 58.6°F14.8°C 54.5°F12.5°C 86% 7.8 mph SW12.6 kmh SW 15.7 mph25.3 kmh 29.60 in1002.4 mb 0.00 in0.0 mm 0.00 in0.0 mm 0.59 in15.0 mm
07:20 PM 58.6°F14.8°C 54.5°F12.5°C 86% 7.4 mph SSW11.9 kmh SSW 14.1 mph22.7 kmh 29.59 in1002.0 mb 0.00 in0.0 mm 0.00 in0.0 mm 0.59 in15.0 mm
07:25 PM 58.8°F14.9°C 55.0°F12.8°C 87% 8.5 mph SSW13.7 kmh SSW 13.6 mph21.9 kmh 29.59 in1002.0 mb 0.00 in0.0 mm 0.00 in0.0 mm 0.59 in15.0 mm
07:30 PM 58.6°F14.8°C 54.5°F12.5°C 86% 8.7 mph SW14.0 kmh SW 13.6 mph21.9 kmh 29.59 in1002.0 mb 0.00 in0.0 mm 0.00 in0.0 mm 0.59 in15.0 mm
07:35 PM 58.6°F14.8°C 54.8°F12.7°C 87% 7.6 mph SW12.2 kmh SW 13.0 mph20.9 kmh 29.59 in1002.0 mb 0.00 in0.0 mm 0.00 in0.0 mm 0.59 in15.0 mm
07:40 PM 58.6°F14.8°C 54.8°F12.7°C 87% 10.3 mph SW16.6 kmh SW 15.4 mph24.8 kmh 29.59 in1002.0 mb 0.00 in0.0 mm 0.00 in0.0 mm 0.59 in15.0 mm
07:45 PM 58.8°F14.9°C 55.0°F12.8°C 87% 8.5 mph SSW13.7 kmh SSW 17.7 mph28.5 kmh 29.59 in1002.0 mb 0.00 in0.0 mm 0.00 in0.0 mm 0.59 in15.0 mm
07:50 PM 58.8°F14.9°C 55.0°F12.8°C 87% 8.9 mph SSW14.3 kmh SSW 17.7 mph28.5 kmh 29.59 in1002.0 mb 0.00 in0.0 mm 0.00 in0.0 mm 0.59 in15.0 mm
07:55 PM 59.0°F15.0°C 55.5°F13.1°C 88% 8.9 mph SSW14.3 kmh SSW 15.2 mph24.5 kmh 29.59 in1002.0 mb 0.00 in0.0 mm 0.00 in0.0 mm 0.59 in15.0 mm
08:00 PM 59.2°F15.1°C 55.7°F13.2°C 88% 12.8 mph SSW20.6 kmh SSW 17.2 mph27.7 kmh 29.59 in1002.0 mb 0.00 in0.0 mm 0.00 in0.0 mm 0.59 in15.0 mm
08:05 PM 59.2°F15.1°C 55.7°F13.2°C 88% 13.0 mph SSW20.9 kmh SSW 17.2 mph27.7 kmh 29.59 in1002.0 mb 0.00 in0.0 mm 0.00 in0.0 mm 0.59 in15.0 mm
08:10 PM 59.2°F15.1°C 55.7°F13.2°C 88% 10.5 mph SSW16.9 kmh SSW 15.4 mph24.8 kmh 29.59 in1002.0 mb 0.00 in0.0 mm 0.00 in0.0 mm 0.59 in15.0 mm
08:15 PM 59.2°F15.1°C 55.7°F13.2°C 88% 8.9 mph SSW14.3 kmh SSW 14.3 mph23.0 kmh 29.59 in1002.0 mb 0.00 in0.0 mm 0.00 in0.0 mm 0.59 in15.0 mm
08:20 PM 59.4°F15.2°C 55.8°F13.2°C 88% 10.1 mph SSW16.3 kmh SSW 17.9 mph28.8 kmh 29.59 in1002.0 mb 0.00 in0.0 mm 0.00 in0.0 mm 0.59 in15.0 mm
08:25 PM 59.5°F15.3°C 56.0°F13.3°C 88% 10.5 mph SSW16.9 kmh SSW 18.8 mph30.3 kmh 29.59 in1002.0 mb 0.00 in0.0 mm 0.00 in0.0 mm 0.59 in15.0 mm
08:30 PM 59.7°F15.4°C 56.2°F13.4°C 88% 13.2 mph SSW21.2 kmh SSW 18.8 mph30.3 kmh 29.59 in1002.0 mb 0.00 in0.0 mm 0.00 in0.0 mm 0.59 in15.0 mm
08:35 PM 59.9°F15.5°C 56.4°F13.6°C 88% 11.6 mph SSW18.7 kmh SSW 15.9 mph25.6 kmh 29.58 in1001.7 mb 0.00 in0.0 mm 0.00 in0.0 mm 0.59 in15.0 mm
08:40 PM 59.9°F15.5°C 56.4°F13.6°C 88% 9.6 mph SSW15.4 kmh SSW 15.9 mph25.6 kmh 29.58 in1001.7 mb 0.00 in0.0 mm 0.00 in0.0 mm 0.59 in15.0 mm
08:45 PM 60.1°F15.6°C 56.6°F13.7°C 88% 7.8 mph SSW12.6 kmh SSW 15.7 mph25.3 kmh 29.58 in1001.7 mb 0.00 in0.0 mm 0.00 in0.0 mm 0.59 in15.0 mm
08:50 PM 59.9°F15.5°C 56.4°F13.6°C 88% 9.6 mph SSW15.4 kmh SSW 15.9 mph25.6 kmh 29.58 in1001.7 mb 0.00 in0.0 mm 0.00 in0.0 mm 0.59 in15.0 mm
08:55 PM 59.9°F15.5°C 56.4°F13.6°C 88% 14.3 mph SSW23.0 kmh SSW 15.9 mph25.6 kmh 29.58 in1001.7 mb 0.00 in0.0 mm 0.00 in0.0 mm 0.59 in15.0 mm
09:00 PM 59.9°F15.5°C 56.4°F13.6°C 88% 10.5 mph SSW16.9 kmh SSW 18.1 mph29.1 kmh 29.58 in1001.7 mb 0.00 in0.0 mm 0.00 in0.0 mm 0.59 in15.0 mm
09:05 PM 59.9°F15.5°C 56.0°F13.3°C 87% 10.1 mph SSW16.3 kmh SSW 18.1 mph29.1 kmh 29.58 in1001.7 mb 0.00 in0.0 mm 0.00 in0.0 mm 0.59 in15.0 mm
09:10 PM 59.7°F15.4°C 56.2°F13.4°C 88% 12.8 mph SSW20.6 kmh SSW 17.0 mph27.4 kmh 29.58 in1001.7 mb 0.00 in0.0 mm 0.00 in0.0 mm 0.59 in15.0 mm
09:15 PM 59.7°F15.4°C 56.2°F13.4°C 88% 13.0 mph SSW20.9 kmh SSW 17.4 mph28.0 kmh 29.58 in1001.7 mb 0.00 in0.0 mm 0.00 in0.0 mm 0.59 in15.0 mm
09:20 PM 59.7°F15.4°C 55.9°F13.3°C 87% 12.3 mph SSW19.8 kmh SSW 17.4 mph28.0 kmh 29.58 in1001.7 mb 0.00 in0.0 mm 0.00 in0.0 mm 0.59 in15.0 mm
09:25 PM 59.9°F15.5°C 56.0°F13.3°C 87% 18.8 mph SSW30.3 kmh SSW 20.4 mph32.8 kmh 29.58 in1001.7 mb 0.00 in0.0 mm 0.00 in0.0 mm 0.59 in15.0 mm
09:30 PM 60.1°F15.6°C 56.2°F13.4°C 87% 15.0 mph SSW24.1 kmh SSW 20.4 mph32.8 kmh 29.58 in1001.7 mb 0.00 in0.0 mm 0.00 in0.0 mm 0.59 in15.0 mm
09:35 PM 60.1°F15.6°C 56.2°F13.4°C 87% 13.9 mph SSW22.4 kmh SSW 17.2 mph27.7 kmh 29.59 in1002.0 mb 0.00 in0.0 mm 0.00 in0.0 mm 0.59 in15.0 mm
09:40 PM 59.9°F15.5°C 56.0°F13.3°C 87% 12.3 mph SSW19.8 kmh SSW 16.3 mph26.2 kmh 29.58 in1001.7 mb 0.00 in0.0 mm 0.00 in0.0 mm 0.59 in15.0 mm
09:45 PM 59.7°F15.4°C 56.2°F13.4°C 88% 17.0 mph SSW27.4 kmh SSW 17.2 mph27.7 kmh 29.58 in1001.7 mb 0.00 in0.0 mm 0.00 in0.0 mm 0.59 in15.0 mm
09:50 PM 59.9°F15.5°C 56.4°F13.6°C 88% 13.9 mph SSW22.4 kmh SSW 20.4 mph32.8 kmh 29.58 in1001.7 mb 0.00 in0.0 mm 0.00 in0.0 mm 0.59 in15.0 mm
09:55 PM 59.9°F15.5°C 56.4°F13.6°C 88% 5.8 mph SSW9.3 kmh SSW 20.4 mph32.8 kmh 29.58 in1001.7 mb 0.00 in0.0 mm 0.00 in0.0 mm 0.59 in15.0 mm
10:00 PM 60.1°F15.6°C 56.6°F13.7°C 88% 13.2 mph SSW21.2 kmh SSW 18.3 mph29.5 kmh 29.58 in1001.7 mb 0.00 in0.0 mm 0.00 in0.0 mm 0.59 in15.0 mm
10:05 PM 60.1°F15.6°C 56.6°F13.7°C 88% 9.2 mph SSW14.8 kmh SSW 18.3 mph29.5 kmh 29.58 in1001.7 mb 0.00 in0.0 mm 0.00 in0.0 mm 0.59 in15.0 mm
10:10 PM 60.1°F15.6°C 56.6°F13.7°C 88% 10.3 mph SSW16.6 kmh SSW 17.2 mph27.7 kmh 29.58 in1001.7 mb 0.00 in0.0 mm 0.00 in0.0 mm 0.59 in15.0 mm
10:15 PM 60.3°F15.7°C 57.1°F13.9°C 89% 6.9 mph SSW11.1 kmh SSW 15.7 mph25.3 kmh 29.58 in1001.7 mb 0.00 in0.0 mm 0.00 in0.0 mm 0.59 in15.0 mm
10:20 PM 60.4°F15.8°C 57.2°F14.0°C 89% 5.8 mph SSW9.3 kmh SSW 16.6 mph26.7 kmh 29.57 in1001.4 mb 0.00 in0.0 mm 0.00 in0.0 mm 0.59 in15.0 mm
10:25 PM 60.4°F15.8°C 57.2°F14.0°C 89% 6.5 mph SSW10.5 kmh SSW 16.6 mph26.7 kmh 29.57 in1001.4 mb 0.00 in0.0 mm 0.00 in0.0 mm 0.59 in15.0 mm
10:30 PM 60.6°F15.9°C 57.4°F14.1°C 89% 6.0 mph SSW9.7 kmh SSW 10.7 mph17.2 kmh 29.57 in1001.4 mb 0.00 in0.0 mm 0.00 in0.0 mm 0.59 in15.0 mm
10:35 PM 60.6°F15.9°C 57.4°F14.1°C 89% 13.4 mph SSW21.6 kmh SSW 14.3 mph23.0 kmh 29.57 in1001.4 mb 0.00 in0.0 mm 0.00 in0.0 mm 0.59 in15.0 mm
10:40 PM 60.6°F15.9°C 57.4°F14.1°C 89% 7.2 mph SSW11.6 kmh SSW 14.3 mph23.0 kmh 29.57 in1001.4 mb 0.00 in0.0 mm 0.00 in0.0 mm 0.59 in15.0 mm
10:45 PM 60.8°F16.0°C 57.6°F14.2°C 89% 6.7 mph SSW10.8 kmh SSW 13.9 mph22.4 kmh 29.57 in1001.4 mb 0.00 in0.0 mm 0.00 in0.0 mm 0.59 in15.0 mm
10:50 PM 61.0°F16.1°C 57.8°F14.3°C 89% 8.9 mph SSW14.3 kmh SSW 13.9 mph22.4 kmh 29.57 in1001.4 mb 0.00 in0.0 mm 0.00 in0.0 mm 0.59 in15.0 mm
10:55 PM 61.0°F16.1°C 57.8°F14.3°C 89% 13.0 mph SSW20.9 kmh SSW 13.0 mph20.9 kmh 29.57 in1001.4 mb 0.00 in0.0 mm 0.00 in0.0 mm 0.59 in15.0 mm
11:00 PM 61.0°F16.1°C 57.4°F14.1°C 88% 8.3 mph SSW13.4 kmh SSW 13.4 mph21.6 kmh 29.57 in1001.4 mb 0.00 in0.0 mm 0.00 in0.0 mm 0.59 in15.0 mm
11:05 PM 61.2°F16.2°C 57.6°F14.2°C 88% 14.5 mph SSW23.3 kmh SSW 15.7 mph25.3 kmh 29.57 in1001.4 mb 0.00 in0.0 mm 0.00 in0.0 mm 0.59 in15.0 mm
11:10 PM 61.3°F16.3°C 57.8°F14.3°C 88% 11.9 mph SSW19.2 kmh SSW 15.7 mph25.3 kmh 29.57 in1001.4 mb 0.00 in0.0 mm 0.00 in0.0 mm 0.59 in15.0 mm
11:15 PM 61.3°F16.3°C 57.8°F14.3°C 88% 8.7 mph S14.0 kmh S 13.4 mph21.6 kmh 29.57 in1001.4 mb 0.00 in0.0 mm 0.00 in0.0 mm 0.59 in15.0 mm
11:20 PM 61.3°F16.3°C 57.8°F14.3°C 88% 6.0 mph S9.7 kmh S 13.4 mph21.6 kmh 29.56 in1001.0 mb 0.00 in0.0 mm 0.00 in0.0 mm 0.59 in15.0 mm
11:25 PM 61.3°F16.3°C 57.8°F14.3°C 88% 10.1 mph SSW16.3 kmh SSW 13.2 mph21.2 kmh 29.56 in1001.0 mb 0.00 in0.0 mm 0.00 in0.0 mm 0.59 in15.0 mm
11:30 PM 61.3°F16.3°C 57.5°F14.2°C 87% 10.7 mph SSW17.2 kmh SSW 17.7 mph28.5 kmh 29.56 in1001.0 mb 0.00 in0.0 mm 0.00 in0.0 mm 0.59 in15.0 mm
11:35 PM 61.5°F16.4°C 57.6°F14.2°C 87% 6.5 mph SSW10.5 kmh SSW 17.7 mph28.5 kmh 29.56 in1001.0 mb 0.00 in0.0 mm 0.00 in0.0 mm 0.59 in15.0 mm
11:40 PM 61.5°F16.4°C 57.6°F14.2°C 87% 16.8 mph S27.0 kmh S 20.1 mph32.3 kmh 29.56 in1001.0 mb 0.00 in0.0 mm 0.00 in0.0 mm 0.59 in15.0 mm
11:45 PM 61.5°F16.4°C 57.6°F14.2°C 87% 13.2 mph S21.2 kmh S 20.1 mph32.3 kmh 29.55 in1000.7 mb 0.00 in0.0 mm 0.00 in0.0 mm 0.59 in15.0 mm
11:50 PM 61.5°F16.4°C 57.6°F14.2°C 87% 6.5 mph S10.5 kmh S 19.7 mph31.7 kmh 29.55 in1000.7 mb 0.00 in0.0 mm 0.00 in0.0 mm 0.59 in15.0 mm
11:55 PM 61.5°F16.4°C 57.6°F14.2°C 87% 18.3 mph S29.5 kmh S 19.7 mph31.7 kmh 29.55 in1000.7 mb 0.00 in0.0 mm 0.00 in0.0 mm 0.59 in15.0 mm